Time;durP1;ratioP1;P1;durP2;ratioP2;P2;SDS_P1;SDS_P2;PMS_P1;PMS_P2;Temp;Humidity;BMP_temperature;BMP_pressure;BME280_temperature;BME280_humidity;BME280_pressure;Samples;Min_cycle;Max_cycle;Signal;HPM_P1;HPM_P2
2024/03/15 00:02:17;;;;;;;0.15;0.15;;;;;;;13.91;68.41;100706.28;5145887;27;20023;-80
2024/03/15 00:04:43;;;;;;;0.10;0.10;;;;;;;13.96;68.79;100703.44;5142311;27;20034;-82
2024/03/15 00:07:09;;;;;;;0.10;0.10;;;;;;;14.00;68.38;100704.22;5156009;27;20034;-80
2024/03/15 00:09:36;;;;;;;0.10;0.10;;;;;;;14.06;68.42;100709.31;5155810;27;20031;-81
2024/03/15 00:12:02;;;;;;;0.10;0.10;;;;;;;14.08;68.10;100707.44;5156500;27;20027;-80
2024/03/15 00:14:29;;;;;;;0.10;0.10;;;;;;;14.14;68.73;100707.22;5157263;27;20034;-81
2024/03/15 00:16:56;;;;;;;0.10;0.10;;;;;;;14.20;68.35;100711.47;5153255;27;20537;-79
2024/03/15 00:19:22;;;;;;;0.10;0.10;;;;;;;14.27;67.64;100707.66;5152430;27;20046;-79
2024/03/15 00:21:49;;;;;;;0.90;0.47;;;;;;;14.34;68.06;100705.59;5158040;27;20034;-80
2024/03/15 00:24:16;;;;;;;0.45;0.45;;;;;;;14.38;67.55;100707.22;5156226;27;20105;-79
2024/03/15 00:26:43;;;;;;;0.50;0.50;;;;;;;14.44;67.35;100701.66;5155110;27;20038;-80
2024/03/15 00:29:10;;;;;;;0.10;0.10;;;;;;;14.49;67.32;100704.16;5153642;27;20034;-80
2024/03/15 00:31:40;;;;;;;0.52;0.52;;;;;;;14.53;67.92;100703.13;5156395;27;20023;-79
2024/03/15 00:34:07;;;;;;;0.25;0.25;;;;;;;14.58;67.65;100706.47;5158581;27;20015;-79
2024/03/15 00:36:35;;;;;;;0.65;0.65;;;;;;;14.65;67.29;100701.78;5160993;27;20034;-80
2024/03/15 00:39:03;;;;;;;0.30;0.30;;;;;;;14.75;66.79;100703.16;5150388;27;20030;-79
2024/03/15 00:41:29;;;;;;;0.10;0.10;;;;;;;14.73;67.10;100697.03;5154518;27;20043;-79
2024/03/15 00:43:55;;;;;;;6.68;1.83;;;;;;;14.78;66.65;100697.72;5152131;27;20041;-78
2024/03/15 00:46:22;;;;;;;0.38;0.38;;;;;;;14.83;66.80;100698.41;5155410;27;20030;-79
2024/03/15 00:48:49;;;;;;;0.28;0.28;;;;;;;14.90;66.57;100695.50;5157933;27;20027;-79
2024/03/15 00:51:15;;;;;;;0.10;0.10;;;;;;;14.86;66.22;100695.59;5154281;27;20091;-79
2024/03/15 00:53:41;;;;;;;0.20;0.20;;;;;;;14.82;66.65;100699.31;5157208;27;20065;-80
2024/03/15 00:56:10;;;;;;;0.32;0.32;;;;;;;14.94;66.54;100691.75;5156241;27;20444;-79
2024/03/15 00:58:36;;;;;;;0.10;0.10;;;;;;;14.94;66.38;100691.75;5154152;27;20022;-79
2024/03/15 01:01:05;;;;;;;0.32;0.32;;;;;;;15.01;65.89;100693.25;5154667;27;20477;-79
2024/03/15 01:03:31;;;;;;;0.30;0.30;;;;;;;15.07;65.77;100693.00;5155989;27;20087;-78
2024/03/15 01:05:59;;;;;;;0.30;0.30;;;;;;;15.11;65.55;100688.41;5154147;27;20018;-78
2024/03/15 01:08:26;;;;;;;5.45;2.17;;;;;;;15.06;65.68;100685.91;5150821;27;20034;-79
2024/03/15 01:10:52;;;;;;;0.10;0.10;;;;;;;15.12;65.71;100691.00;5143065;27;20039;-79
2024/03/15 01:13:19;;;;;;;3.10;1.10;;;;;;;15.09;65.56;100691.16;5155377;27;20031;-79
2024/03/15 01:15:46;;;;;;;0.10;0.10;;;;;;;15.16;65.49;100673.91;5161308;27;20039;-80
2024/03/15 01:18:12;;;;;;;0.20;0.20;;;;;;;15.18;65.21;100679.22;5153726;27;20022;-80
2024/03/15 01:20:39;;;;;;;0.68;0.68;;;;;;;15.18;65.42;100676.56;5157007;27;20022;-79
2024/03/15 01:23:06;;;;;;;0.10;0.10;;;;;;;15.19;65.22;100673.81;5154658;27;20052;-79
2024/03/15 01:25:35;;;;;;;0.10;0.10;;;;;;;15.26;65.24;100670.88;5155897;27;20079;-78
2024/03/15 01:28:04;;;;;;;0.65;0.52;;;;;;;15.25;65.36;100680.66;5150853;27;20023;-79
2024/03/15 01:30:30;;;;;;;0.03;0.03;;;;;;;15.24;65.31;100678.06;5155859;27;20499;-79
2024/03/15 01:32:57;;;;;;;0.45;0.45;;;;;;;15.24;65.23;100678.06;5153852;27;20030;-78
2024/03/15 01:35:23;;;;;;;0.55;0.55;;;;;;;15.28;65.44;100679.72;5152933;27;20053;-80
2024/03/15 01:37:50;;;;;;;0.28;0.28;;;;;;;15.25;65.61;100679.81;5140537;27;20102;-79
2024/03/15 01:40:17;;;;;;;0.10;0.10;;;;;;;15.16;66.23;100676.59;5144564;27;20031;-79
2024/03/15 01:42:43;;;;;;;0.10;0.10;;;;;;;15.18;65.82;100682.75;5147194;27;20057;-80
2024/03/15 01:45:12;;;;;;;0.30;0.30;;;;;;;15.17;65.79;100682.81;5153568;27;20057;-81
2024/03/15 01:47:38;;;;;;;0.45;0.45;;;;;;;15.13;66.22;100666.06;5149403;27;20023;-80
2024/03/15 01:50:07;;;;;;;0.10;0.10;;;;;;;15.00;66.76;100681.72;5139111;27;20027;-80
2024/03/15 01:52:35;;;;;;;0.35;0.35;;;;;;;15.02;66.90;100678.97;5147933;27;20370;-79
2024/03/15 01:55:02;;;;;;;0.10;0.10;;;;;;;15.05;66.70;100684.19;5147323;27;20035;-79
2024/03/15 01:57:29;;;;;;;0.10;0.10;;;;;;;15.00;67.17;100676.38;5155878;27;20019;-79
2024/03/15 01:59:58;;;;;;;0.20;0.20;;;;;;;14.95;67.54;100673.00;5162690;27;20053;-80
2024/03/15 02:02:26;;;;;;;0.10;0.10;;;;;;;14.96;68.06;100674.75;5156144;27;20049;-79
2024/03/15 02:04:54;;;;;;;0.30;0.30;;;;;;;14.94;68.00;100683.75;5152401;27;20015;-79
2024/03/15 02:07:21;;;;;;;0.10;0.10;;;;;;;14.92;68.21;100683.81;5147742;27;20114;-81
2024/03/15 02:09:47;;;;;;;1.02;1.02;;;;;;;14.87;68.83;100676.00;5141004;27;20436;-78
2024/03/15 02:12:14;;;;;;;0.17;0.17;;;;;;;14.86;68.85;100676.91;5156369;27;20019;-81
2024/03/15 02:14:40;;;;;;;0.10;0.10;;;;;;;14.72;70.30;100676.63;5152733;27;20038;-80
2024/03/15 02:17:06;;;;;;;1.10;1.02;;;;;;;14.79;69.67;100671.91;5135461;27;20057;-80
2024/03/15 02:19:33;;;;;;;0.05;0.05;;;;;;;14.74;69.98;100679.22;5135678;27;20072;-80
2024/03/15 02:21:59;;;;;;;0.20;0.20;;;;;;;14.74;70.56;100674.75;5138637;27;20031;-80
2024/03/15 02:24:26;;;;;;;0.20;0.20;;;;;;;14.68;70.11;100675.88;5140143;27;20085;-80
2024/03/15 02:26:52;;;;;;;0.00;0.00;;;;;;;14.66;70.42;100672.41;5139012;27;20442;-80
2024/03/15 02:29:18;;;;;;;0.03;0.03;;;;;;;14.61;71.07;100673.50;5139573;27;20026;-80
2024/03/15 02:31:46;;;;;;;0.55;0.55;;;;;;;14.61;70.23;100677.00;5152878;27;20109;-80
2024/03/15 02:34:13;;;;;;;0.17;0.17;;;;;;;14.59;70.85;100670.00;5157990;27;20117;-80
2024/03/15 02:36:40;;;;;;;0.10;0.10;;;;;;;14.59;71.09;100672.69;5160731;27;20030;-79
2024/03/15 02:39:07;;;;;;;0.15;0.15;;;;;;;14.54;70.94;100673.72;5155947;27;20034;-80
2024/03/15 02:41:33;;;;;;;0.20;0.20;;;;;;;14.43;72.19;100675.06;5161478;27;20023;-79
2024/03/15 02:44:00;;;;;;;0.10;0.10;;;;;;;14.45;71.68;100679.41;5158766;27;20018;-79
2024/03/15 02:46:27;;;;;;;0.30;0.30;;;;;;;14.44;71.72;100683.00;5157920;27;20035;-79
2024/03/15 02:48:53;;;;;;;0.00;0.00;;;;;;;14.39;72.25;100685.88;5160795;27;20051;-79
2024/03/15 02:51:25;;;;;;;0.00;0.00;;;;;;;14.38;72.44;100688.56;5157457;27;20027;-80
2024/03/15 02:53:51;;;;;;;0.10;0.10;;;;;;;14.38;73.09;100677.91;5159217;27;20086;-80
2024/03/15 02:56:17;;;;;;;0.28;0.28;;;;;;;14.31;73.28;100687.09;5157246;27;20031;-80
2024/03/15 02:58:46;;;;;;;0.32;0.32;;;;;;;14.37;73.06;100684.19;5158239;27;20389;-80
2024/03/15 03:01:13;;;;;;;0.10;0.10;;;;;;;14.28;73.56;100679.19;5156409;27;20105;-80
2024/03/15 03:03:39;;;;;;;0.10;0.10;;;;;;;14.30;73.01;100682.69;5163756;27;20025;-78
2024/03/15 03:06:06;;;;;;;0.50;0.50;;;;;;;14.29;72.78;100684.44;5159609;27;20030;-80
2024/03/15 03:08:35;;;;;;;0.25;0.25;;;;;;;14.28;73.20;100695.19;5154560;27;20045;-79
2024/03/15 03:11:06;;;;;;;0.15;0.15;;;;;;;14.28;72.80;100689.84;5154725;27;20018;-79
2024/03/15 03:13:33;;;;;;;0.77;0.77;;;;;;;14.26;73.05;100683.72;5150317;27;20034;-78
2024/03/15 03:16:00;;;;;;;0.10;0.10;;;;;;;14.29;73.04;100688.94;5155271;27;20547;-78
2024/03/15 03:18:26;;;;;;;0.10;0.10;;;;;;;14.23;73.42;100682.03;5154877;27;20114;-80
2024/03/15 03:20:55;;;;;;;0.50;0.38;;;;;;;14.28;72.61;100679.19;5151626;27;20030;-79
2024/03/15 03:23:22;;;;;;;0.25;0.25;;;;;;;14.22;73.61;100683.81;5158145;27;20496;-80
2024/03/15 03:25:49;;;;;;;2.80;1.60;;;;;;;14.22;73.11;100678.50;5155875;27;20180;-80
2024/03/15 03:28:16;;;;;;;0.10;0.10;;;;;;;14.21;73.24;100687.41;5149337;27;20276;-80
2024/03/15 03:30:43;;;;;;;0.10;0.10;;;;;;;14.20;73.99;100684.81;5157275;27;20030;-81
2024/03/15 03:33:09;;;;;;;0.20;0.20;;;;;;;14.29;73.49;100683.59;5154757;27;20024;-80
2024/03/15 03:35:35;;;;;;;0.10;0.10;;;;;;;14.30;72.81;100682.69;5156996;27;20050;-79
2024/03/15 03:38:02;;;;;;;0.08;0.08;;;;;;;14.28;73.32;100684.53;5155648;27;20022;-80
2024/03/15 03:40:29;;;;;;;0.10;0.10;;;;;;;14.34;73.14;100673.63;5155686;27;20505;-78
2024/03/15 03:42:55;;;;;;;0.10;0.10;;;;;;;14.36;72.99;100679.78;5153981;27;20568;-78
2024/03/15 03:45:22;;;;;;;0.75;0.75;;;;;;;14.32;73.36;100681.69;5152079;27;20026;-79
2024/03/15 03:47:49;;;;;;;0.00;0.00;;;;;;;14.32;72.85;100683.50;5151819;27;20479;-79
2024/03/15 03:50:17;;;;;;;0.20;0.20;;;;;;;14.39;73.15;100682.31;5149788;27;20477;-78
2024/03/15 03:52:45;;;;;;;0.10;0.10;;;;;;;14.28;73.62;100682.75;5156779;27;20515;-79
2024/03/15 03:55:12;;;;;;;0.20;0.20;;;;;;;14.37;72.87;100687.72;5165091;27;20063;-81
2024/03/15 03:57:38;;;;;;;0.10;0.10;;;;;;;14.37;73.31;100690.38;5160129;27;20498;-79
2024/03/15 04:00:05;;;;;;;0.10;0.10;;;;;;;14.35;73.21;100684.22;5164942;27;20019;-81
2024/03/15 04:02:31;;;;;;;0.30;0.30;;;;;;;14.44;72.92;100684.81;5165174;27;20022;-79
2024/03/15 04:04:58;;;;;;;0.15;0.15;;;;;;;14.51;73.05;100672.97;5162006;27;20043;-80
2024/03/15 04:07:31;;;;;;;0.10;0.10;;;;;;;14.56;72.92;100682.53;5160455;27;20022;-79
2024/03/15 04:09:58;;;;;;;0.40;0.40;;;;;;;14.50;73.25;100693.44;5163215;27;20050;-78
2024/03/15 04:12:26;;;;;;;0.10;0.10;;;;;;;14.52;73.21;100686.25;5164199;27;20406;-79
2024/03/15 04:14:54;;;;;;;0.70;0.70;;;;;;;14.56;72.79;100671.00;5164943;27;20113;-78
2024/03/15 04:17:20;;;;;;;0.65;0.65;;;;;;;14.54;72.95;100684.41;5160311;27;20075;-78
2024/03/15 04:19:47;;;;;;;0.95;0.22;;;;;;;14.58;72.88;100674.50;5165985;27;20030;-80
2024/03/15 04:22:13;;;;;;;0.10;0.10;;;;;;;14.59;72.95;100683.34;5167556;27;20092;-80
2024/03/15 04:24:40;;;;;;;0.10;0.10;;;;;;;14.59;72.74;100680.66;5159771;27;20024;-81
2024/03/15 04:27:08;;;;;;;1.65;1.10;;;;;;;14.57;72.95;100686.06;5162269;27;20037;-80
2024/03/15 04:29:35;;;;;;;0.10;0.10;;;;;;;14.52;73.41;100685.38;5164747;27;20015;-80
2024/03/15 04:32:02;;;;;;;0.10;0.10;;;;;;;14.55;73.04;100680.81;5162536;27;20109;-81
2024/03/15 04:34:33;;;;;;;0.10;0.10;;;;;;;14.48;73.71;100684.63;5164978;27;20030;-80
2024/03/15 04:37:00;;;;;;;0.10;0.10;;;;;;;14.53;73.40;100682.66;5163578;27;20037;-81
2024/03/15 04:39:26;;;;;;;0.10;0.10;;;;;;;14.56;73.00;100681.66;5164196;27;20478;-80
2024/03/15 04:41:52;;;;;;;0.10;0.10;;;;;;;14.53;73.19;100677.31;5159872;27;20330;-80
2024/03/15 04:44:18;;;;;;;0.60;0.60;;;;;;;14.57;73.05;100676.25;5162842;27;20078;-80
2024/03/15 04:46:45;;;;;;;17.17;2.13;;;;;;;14.46;73.71;100689.16;5162781;27;20028;-79
2024/03/15 04:49:11;;;;;;;0.20;0.20;;;;;;;14.50;74.36;100684.56;5162530;27;20451;-80
2024/03/15 04:51:37;;;;;;;0.77;0.77;;;;;;;14.41;74.51;100688.47;5160645;27;20034;-81
2024/03/15 04:54:04;;;;;;;0.10;0.10;;;;;;;14.44;74.57;100700.81;5166976;27;20022;-79
2024/03/15 04:56:33;;;;;;;0.30;0.30;;;;;;;14.41;75.27;100693.78;5158797;27;20381;-81
2024/03/15 04:58:59;;;;;;;0.63;0.47;;;;;;;14.27;75.77;100688.09;5160589;27;20491;-80
2024/03/15 05:01:25;;;;;;;0.35;0.35;;;;;;;14.37;75.50;100694.84;5162403;27;20026;-79
2024/03/15 05:03:51;;;;;;;0.20;0.20;;;;;;;14.34;75.79;100693.16;5159796;27;20076;-79
2024/03/15 05:06:18;;;;;;;0.20;0.20;;;;;;;14.24;76.19;100687.31;5161403;27;20091;-79
2024/03/15 05:08:44;;;;;;;0.20;0.20;;;;;;;14.22;76.45;100694.50;5162378;27;20023;-81
2024/03/15 05:11:12;;;;;;;0.10;0.10;;;;;;;14.23;76.46;100690.91;5159256;27;20045;-80
2024/03/15 05:13:38;;;;;;;0.10;0.10;;;;;;;14.20;76.63;100693.66;5159441;27;20040;-81
2024/03/15 05:16:05;;;;;;;0.10;0.10;;;;;;;14.13;77.10;100700.19;5160964;27;20035;-80
2024/03/15 05:18:31;;;;;;;0.10;0.10;;;;;;;14.08;77.80;100696.78;5158107;27;20039;-79
2024/03/15 05:20:57;;;;;;;0.50;0.50;;;;;;;14.10;77.40;100694.94;5148938;27;20043;-79
2024/03/15 05:23:23;;;;;;;0.43;0.43;;;;;;;14.10;77.46;100689.63;5157253;27;20022;-78
2024/03/15 05:25:49;;;;;;;0.10;0.10;;;;;;;14.15;77.31;100703.63;5155827;27;20046;-77
2024/03/15 05:28:16;;;;;;;0.55;0.55;;;;;;;14.17;77.42;100701.78;5157685;27;20026;-78
2024/03/15 05:30:43;;;;;;;3.83;1.02;;;;;;;14.10;77.29;100697.59;5160014;27;20079;-78
2024/03/15 05:33:09;;;;;;;0.20;0.20;;;;;;;14.12;77.85;100690.44;5158261;27;20105;-78
2024/03/15 05:35:35;;;;;;;0.60;0.60;;;;;;;14.16;77.59;100697.38;5160114;27;20226;-80
2024/03/15 05:38:02;;;;;;;0.10;0.10;;;;;;;14.08;77.94;100699.44;5157503;27;20030;-78
2024/03/15 05:40:28;;;;;;;0.20;0.20;;;;;;;14.12;77.96;100697.53;5158842;27;20042;-77
2024/03/15 05:42:54;;;;;;;0.35;0.35;;;;;;;14.07;78.01;100705.72;5160417;27;20030;-79
2024/03/15 05:45:21;;;;;;;1.00;0.55;;;;;;;14.05;78.26;100702.25;5160901;27;20010;-80
2024/03/15 05:47:47;;;;;;;0.13;0.13;;;;;;;14.01;78.46;100696.16;5160630;27;20041;-80
2024/03/15 05:50:13;;;;;;;0.50;0.50;;;;;;;14.07;77.94;100698.59;5160048;27;20019;-79
2024/03/15 05:52:39;;;;;;;1.17;1.17;;;;;;;14.01;78.70;100705.94;5162633;27;20053;-80
2024/03/15 05:55:07;;;;;;;0.10;0.10;;;;;;;14.07;78.48;100706.59;5159370;27;20043;-79
2024/03/15 05:57:33;;;;;;;0.20;0.20;;;;;;;14.10;78.15;100705.59;5163959;27;20035;-80
2024/03/15 06:00:09;;;;;;;0.20;0.20;;;;;;;14.11;78.07;100704.69;5161607;27;20097;-78
2024/03/15 06:02:35;;;;;;;0.32;0.32;;;;;;;14.11;77.89;100702.03;5161366;27;20478;-79
2024/03/15 06:05:01;;;;;;;0.10;0.10;;;;;;;14.06;77.73;100709.31;5161605;27;20033;-79
2024/03/15 06:07:28;;;;;;;0.13;0.13;;;;;;;14.06;77.76;100706.66;5156389;27;20061;-78
2024/03/15 06:09:54;;;;;;;0.10;0.10;;;;;;;14.02;77.76;100705.03;5158389;27;20394;-77
2024/03/15 06:12:20;;;;;;;0.00;0.00;;;;;;;14.02;77.63;100703.22;5157654;27;20101;-79
2024/03/15 06:14:47;;;;;;;0.20;0.20;;;;;;;14.06;77.38;100702.19;5157108;27;20603;-78
2024/03/15 06:17:14;;;;;;;0.10;0.10;;;;;;;14.04;76.88;100697.84;5157667;27;20026;-78
2024/03/15 06:19:40;;;;;;;0.10;0.10;;;;;;;14.05;77.25;100705.75;5158699;27;20030;-79
2024/03/15 06:22:06;;;;;;;0.10;0.10;;;;;;;14.06;77.16;100709.31;5154144;27;20099;-78
2024/03/15 06:24:32;;;;;;;0.32;0.32;;;;;;;14.19;76.68;100707.06;5157610;27;20109;-78
2024/03/15 06:26:59;;;;;;;0.10;0.10;;;;;;;14.15;76.99;100700.97;5152970;27;20031;-77
2024/03/15 06:29:33;;;;;;;0.10;0.10;;;;;;;14.19;76.48;100705.28;5154163;27;20042;-76
2024/03/15 06:32:00;;;;;;;0.10;0.10;;;;;;;14.21;76.52;100702.53;5156378;27;20165;-78
2024/03/15 06:34:31;;;;;;;0.55;0.55;;;;;;;14.20;76.37;100701.66;5157084;27;20027;-76
2024/03/15 06:36:59;;;;;;;3.33;0.70;;;;;;;14.18;76.02;100711.53;5152553;27;20105;-78
2024/03/15 06:39:40;;;;;;;0.35;0.35;;;;;;;14.28;75.93;100708.50;5157928;27;20090;-77
2024/03/15 06:42:24;;;;;;;0.30;0.22;;;;;;;14.33;75.50;100712.75;5153092;27;20026;-77
2024/03/15 06:45:01;;;;;;;0.30;0.30;;;;;;;14.28;75.76;100721.84;5158942;27;20018;-79
2024/03/15 06:47:28;;;;;;;0.20;0.20;;;;;;;14.32;75.37;100720.81;5163970;27;20019;-78
2024/03/15 06:49:54;;;;;;;1.17;0.73;;;;;;;14.28;75.72;100719.16;5163728;27;20026;-78
2024/03/15 06:52:36;;;;;;;0.50;0.50;;;;;;;14.34;75.27;100729.59;5136729;27;20022;-78
2024/03/15 06:55:04;;;;;;;0.70;0.60;;;;;;;14.36;75.16;100736.59;5153844;27;20033;-79
2024/03/15 06:57:31;;;;;;;0.10;0.10;;;;;;;14.42;74.72;100732.84;5153512;27;20058;-78
2024/03/15 06:59:57;;;;;;;0.10;0.10;;;;;;;14.51;74.55;100745.81;5151139;27;20113;-79
2024/03/15 07:02:24;;;;;;;0.10;0.10;;;;;;;14.37;74.28;100721.50;5154375;27;20091;-78
2024/03/15 07:04:50;;;;;;;0.10;0.10;;;;;;;14.38;73.96;100736.53;5156511;27;20041;-79
2024/03/15 07:07:18;;;;;;;0.10;0.10;;;;;;;14.47;73.61;100736.22;5156390;27;20026;-79
2024/03/15 07:09:45;;;;;;;0.10;0.10;;;;;;;14.49;73.46;100739.69;5151291;27;20116;-79
2024/03/15 07:12:14;;;;;;;0.10;0.10;;;;;;;14.59;72.79;100739.34;5153019;27;20027;-79
2024/03/15 07:14:42;;;;;;;0.30;0.30;;;;;;;14.50;72.84;100760.06;5151985;27;20025;-79
2024/03/15 07:17:10;;;;;;;0.17;0.17;;;;;;;14.46;72.58;100741.59;5152480;27;20393;-80
2024/03/15 07:19:36;;;;;;;0.20;0.20;;;;;;;14.69;72.35;100738.06;5156174;27;20457;-80
2024/03/15 07:22:03;;;;;;;0.00;0.00;;;;;;;14.53;72.09;100740.44;5157850;27;20037;-80
2024/03/15 07:24:31;;;;;;;0.10;0.10;;;;;;;14.60;72.23;100741.94;5160767;27;20022;-80
2024/03/15 07:26:57;;;;;;;0.00;0.00;;;;;;;14.55;72.29;100743.91;5142100;27;20502;-80
2024/03/15 07:29:23;;;;;;;0.30;0.30;;;;;;;14.57;71.87;100748.25;5167711;27;20026;-79
2024/03/15 07:31:50;;;;;;;0.10;0.10;;;;;;;14.63;71.80;100748.94;5165858;27;20026;-79
2024/03/15 07:34:16;;;;;;;0.10;0.10;;;;;;;14.64;71.85;100745.34;5160460;27;20026;-78
2024/03/15 07:36:42;;;;;;;0.08;0.08;;;;;;;14.69;71.77;100752.28;5158521;27;20041;-79
2024/03/15 07:39:09;;;;;;;0.10;0.10;;;;;;;14.72;71.81;100756.63;5157209;27;20069;-78
2024/03/15 07:41:37;;;;;;;0.10;0.10;;;;;;;14.76;71.26;100752.91;5155351;27;20033;-80
2024/03/15 07:44:03;;;;;;;0.10;0.10;;;;;;;14.82;71.23;100752.66;5158610;27;20014;-77
2024/03/15 07:46:30;;;;;;;0.10;0.10;;;;;;;14.95;71.25;100741.53;5161194;27;20030;-78
2024/03/15 07:48:57;;;;;;;2.47;2.28;;;;;;;14.88;71.13;100747.09;5158979;27;20034;-79
2024/03/15 07:51:24;;;;;;;0.00;0.00;;;;;;;14.91;71.01;100756.78;5159934;27;20015;-80
2024/03/15 07:53:50;;;;;;;51.08;3.22;;;;;;;14.95;71.04;100757.53;5162316;27;20480;-80
2024/03/15 07:56:17;;;;;;;8.88;2.40;;;;;;;14.99;70.83;100753.78;5141409;27;20034;-79
2024/03/15 07:58:43;;;;;;;0.03;0.03;;;;;;;15.00;70.40;100751.09;5137642;27;20553;-79
2024/03/15 08:01:09;;;;;;;0.10;0.10;;;;;;;14.98;70.74;100752.09;5143937;27;20066;-80
2024/03/15 08:03:36;;;;;;;0.15;0.15;;;;;;;14.99;70.51;100749.34;5152775;27;20022;-79
2024/03/15 08:06:05;;;;;;;0.10;0.10;;;;;;;15.08;70.35;100753.44;5156222;27;20026;-81
2024/03/15 08:08:32;;;;;;;0.10;0.10;;;;;;;15.09;70.26;100752.53;5154622;27;20498;-79
2024/03/15 08:11:00;;;;;;;0.10;0.10;;;;;;;15.16;69.90;100750.47;5156216;27;20503;-81
2024/03/15 08:13:27;;;;;;;0.10;0.10;;;;;;;15.14;70.04;100753.19;5148356;27;20030;-81
2024/03/15 08:16:18;;;;;;;0.10;0.10;;;;;;;15.01;69.37;100757.28;5153057;27;20026;-81
2024/03/15 08:18:47;;;;;;;1.27;1.27;;;;;;;15.10;68.70;100756.91;5154581;27;20045;-82
2024/03/15 08:21:15;;;;;;;0.68;0.68;;;;;;;15.14;68.87;100752.31;5138375;27;20494;-81
2024/03/15 08:23:42;;;;;;;18.40;1.45;;;;;;;15.15;69.05;100743.38;5144162;27;20039;-81
2024/03/15 08:26:10;;;;;;;0.10;0.10;;;;;;;15.24;69.15;100750.13;5147602;27;20035;-80
2024/03/15 08:28:36;;;;;;;0.80;0.40;;;;;;;15.23;68.43;100745.72;5142855;27;20018;-80
2024/03/15 08:31:03;;;;;;;0.30;0.30;;;;;;;15.41;68.67;100744.97;5142278;27;20026;-80
2024/03/15 08:33:30;;;;;;;1.60;1.55;;;;;;;15.39;68.58;100752.19;5135629;27;20067;-81
2024/03/15 08:35:56;;;;;;;0.73;0.73;;;;;;;15.45;68.38;100746.59;5140188;27;20039;-79
2024/03/15 08:38:23;;;;;;;0.10;0.10;;;;;;;15.51;68.35;100746.34;5138622;27;20112;-78
2024/03/15 08:40:49;;;;;;;0.10;0.10;;;;;;;15.69;68.18;100739.34;5139672;27;20061;-79
2024/03/15 08:43:15;;;;;;;0.32;0.32;;;;;;;15.59;67.59;100737.09;5141463;27;20038;-79
2024/03/15 08:45:42;;;;;;;0.10;0.10;;;;;;;15.66;67.21;100743.94;5134081;27;20027;-79
2024/03/15 08:48:08;;;;;;;0.35;0.35;;;;;;;15.65;67.08;100752.88;5133569;27;20042;-78
2024/03/15 08:50:35;;;;;;;0.15;0.15;;;;;;;15.65;66.21;100759.09;5132425;27;20117;-78
2024/03/15 08:53:03;;;;;;;0.10;0.10;;;;;;;15.61;66.64;100741.44;5147391;27;20026;-77
2024/03/15 08:55:29;;;;;;;0.13;0.13;;;;;;;15.70;66.02;100742.84;5142333;27;20511;-78
2024/03/15 08:57:56;;;;;;;0.10;0.10;;;;;;;15.80;65.79;100746.88;5131935;27;20054;-80
2024/03/15 09:00:23;;;;;;;0.10;0.10;;;;;;;15.82;65.65;100746.84;5133197;27;20023;-79
2024/03/15 09:02:49;;;;;;;0.10;0.10;;;;;;;15.91;65.67;100769.63;5133867;27;20019;-78
2024/03/15 09:05:15;;;;;;;0.10;0.10;;;;;;;15.99;65.75;100762.16;5135301;27;20031;-78
2024/03/15 09:07:42;;;;;;;0.10;0.10;;;;;;;16.01;65.01;100760.25;5145036;27;20033;-81
2024/03/15 09:10:13;;;;;;;0.10;0.10;;;;;;;16.12;65.47;100768.66;5151606;27;20154;-80
2024/03/15 09:12:41;;;;;;;2.15;1.95;;;;;;;16.08;64.71;100761.72;5136436;27;20023;-80
2024/03/15 09:15:08;;;;;;;0.52;0.52;;;;;;;16.01;64.75;100758.47;5144425;27;20042;-79
2024/03/15 09:17:34;;;;;;;0.10;0.10;;;;;;;16.09;63.91;100773.31;5147958;27;20023;-80
2024/03/15 09:20:09;;;;;;;0.10;0.10;;;;;;;16.11;63.69;100769.63;5143689;27;20023;-78
2024/03/15 09:22:36;;;;;;;1.70;0.85;;;;;;;16.10;63.57;100775.03;5140542;27;20030;-79
2024/03/15 09:25:02;;;;;;;7.78;1.20;;;;;;;16.12;63.62;100774.00;5142799;27;20095;-79
2024/03/15 09:27:28;;;;;;;16.02;2.42;;;;;;;16.13;63.31;100801.63;5134215;27;20110;-80
2024/03/15 09:29:54;;;;;;;3.08;1.75;;;;;;;16.10;63.47;100781.25;5136014;27;20474;-80
2024/03/15 09:32:21;;;;;;;0.63;0.60;;;;;;;16.13;63.35;100774.91;5138854;27;20513;-79
2024/03/15 09:34:49;;;;;;;0.00;0.00;;;;;;;15.97;63.13;100769.34;5141175;27;20061;-78
2024/03/15 09:37:19;;;;;;;0.88;0.88;;;;;;;16.01;63.16;100765.59;5138202;27;20192;-80
2024/03/15 09:39:45;;;;;;;0.22;0.22;;;;;;;16.11;63.55;100774.97;5152551;27;20027;-79
2024/03/15 09:42:17;;;;;;;3.65;0.52;;;;;;;16.29;63.04;100769.75;5142630;27;20037;-79
2024/03/15 09:44:48;;;;;;;0.20;0.20;;;;;;;16.23;63.10;100781.56;5139146;27;20067;-79
2024/03/15 09:47:15;;;;;;;0.30;0.30;;;;;;;16.25;63.39;100769.00;5136997;27;20063;-79
2024/03/15 09:49:42;;;;;;;0.15;0.15;;;;;;;16.28;63.41;100768.00;5150674;27;20026;-79
2024/03/15 09:52:11;;;;;;;0.03;0.03;;;;;;;16.11;63.44;100772.31;5138583;27;20031;-79
2024/03/15 09:54:37;;;;;;;0.00;0.00;;;;;;;16.12;63.87;100776.69;5145120;27;20054;-80
2024/03/15 09:57:06;;;;;;;0.10;0.10;;;;;;;15.98;64.41;100771.94;5145823;27;20053;-80
2024/03/15 09:59:35;;;;;;;0.00;0.00;;;;;;;16.08;64.46;100774.25;5139607;27;20023;-80
2024/03/15 10:02:12;;;;;;;0.00;0.00;;;;;;;15.99;65.03;100778.19;5138245;27;20371;-80
2024/03/15 10:04:39;;;;;;;0.00;0.00;;;;;;;15.97;65.12;100780.03;5145010;27;20262;-81
2024/03/15 10:07:08;;;;;;;0.10;0.10;;;;;;;16.07;65.46;100784.03;5140189;27;20027;-79
2024/03/15 10:09:39;;;;;;;0.03;0.03;;;;;;;15.84;65.93;100777.91;5138559;27;20034;-80
2024/03/15 10:12:09;;;;;;;0.00;0.00;;;;;;;15.95;65.59;100785.47;5147535;27;20031;-79
2024/03/15 10:14:36;;;;;;;0.10;0.10;;;;;;;15.81;66.15;100777.13;5145986;27;20035;-80
2024/03/15 10:17:03;;;;;;;0.40;0.40;;;;;;;15.99;65.83;100778.19;5155163;27;20466;-80
2024/03/15 10:19:31;;;;;;;0.10;0.10;;;;;;;16.08;65.34;100788.47;5138540;27;20023;-80
2024/03/15 10:21:59;;;;;;;0.20;0.20;;;;;;;16.22;65.54;100776.28;5138717;27;20034;-80
2024/03/15 10:24:25;;;;;;;0.70;0.70;;;;;;;16.27;65.00;100777.81;5143986;27;20019;-80
2024/03/15 10:26:52;;;;;;;0.28;0.28;;;;;;;16.38;64.42;100779.16;5149851;27;20053;-81
2024/03/15 10:29:18;;;;;;;0.10;0.10;;;;;;;16.43;64.16;100769.09;5153483;27;20114;-81
2024/03/15 10:31:44;;;;;;;0.10;0.10;;;;;;;16.46;63.52;100775.19;5157954;27;20393;-80
2024/03/15 10:34:12;;;;;;;10.15;1.10;;;;;;;16.43;63.24;100780.66;5142147;27;20023;-80
2024/03/15 10:36:39;;;;;;;0.10;0.10;;;;;;;16.54;63.04;100779.31;5152578;27;20023;-80
2024/03/15 10:39:09;;;;;;;0.10;0.10;;;;;;;16.43;63.05;100772.63;5158886;27;20035;-80
2024/03/15 10:41:36;;;;;;;1.17;1.13;;;;;;;16.47;63.34;100787.63;5154587;27;20702;-80
2024/03/15 10:44:03;;;;;;;1.98;1.17;;;;;;;16.59;63.52;100779.97;5149228;27;20026;-80
2024/03/15 10:46:30;;;;;;;0.08;0.08;;;;;;;16.54;63.11;100771.28;5148040;27;20050;-79
2024/03/15 10:48:57;;;;;;;0.10;0.10;;;;;;;16.49;62.25;100776.84;5139519;27;20084;-80
2024/03/15 10:51:24;;;;;;;1.17;1.15;;;;;;;16.61;62.77;100780.75;5137675;27;20063;-80
2024/03/15 10:53:53;;;;;;;0.10;0.10;;;;;;;16.70;62.72;100780.34;5143546;27;20022;-80
2024/03/15 10:56:19;;;;;;;0.00;0.00;;;;;;;16.89;62.25;100771.44;5136167;27;20109;-80
2024/03/15 10:58:46;;;;;;;3.20;1.85;;;;;;;16.97;62.31;100771.97;5136793;27;20522;-80
2024/03/15 11:01:12;;;;;;;0.85;0.85;;;;;;;17.04;61.94;100768.06;5138986;27;20114;-80
2024/03/15 11:03:41;;;;;;;8.82;0.57;;;;;;;17.05;61.87;100747.53;5137632;27;20023;-78
2024/03/15 11:06:07;;;;;;;0.10;0.10;;;;;;;16.90;61.39;100754.47;5136087;27;20069;-79
2024/03/15 11:08:35;;;;;;;0.10;0.10;;;;;;;16.94;61.09;100764.94;5137333;27;20497;-79
2024/03/15 11:11:02;;;;;;;0.22;0.22;;;;;;;17.00;61.27;100763.81;5136284;27;20457;-80
2024/03/15 11:13:36;;;;;;;0.32;0.32;;;;;;;16.80;61.44;100772.75;5145552;27;20502;-80
2024/03/15 11:16:25;;;;;;;0.10;0.10;;;;;;;16.85;61.46;100761.81;5137067;27;20019;-77
2024/03/15 11:18:51;;;;;;;0.10;0.10;;;;;;;16.78;61.91;100782.66;5141661;27;20096;-79
2024/03/15 11:21:20;;;;;;;0.10;0.10;;;;;;;16.75;62.13;100775.63;5144602;27;20487;-79
2024/03/15 11:23:46;;;;;;;0.10;0.10;;;;;;;16.93;61.86;100775.75;5145357;27;20043;-80
2024/03/15 11:26:20;;;;;;;0.10;0.10;;;;;;;17.13;60.52;100764.06;5144000;27;20620;-80